Time;durP1;ratioP1;P1;durP2;ratioP2;P2;SDS_P1;SDS_P2;PMS_P1;PMS_P2;Temp;Humidity;BMP_temperature;BMP_pressure;BME280_temperature;BME280_humidity;BME280_pressure;Samples;Min_cycle;Max_cycle;Signal;HPM_P1;HPM_P2
2021/01/31 00:02:16;;;;;;;1.57;1.47;;;;;;;18.69;47.40;98763.33;;;;-58
2021/01/31 00:05:16;;;;;;;1.43;1.33;;;;;;;18.68;47.34;98762.88;;;;-54
2021/01/31 00:08:15;;;;;;;1.52;1.42;;;;;;;18.66;47.42;98765.27;;;;-54
2021/01/31 00:11:17;;;;;;;1.77;1.36;;;;;;;18.64;47.36;98775.20;;;;-63
2021/01/31 00:14:16;;;;;;;1.58;1.48;;;;;;;18.62;47.35;98780.43;;;;-54
2021/01/31 00:17:15;;;;;;;1.49;1.39;;;;;;;18.61;47.35;98777.51;;;;-63
2021/01/31 00:20:16;;;;;;;2.06;1.33;;;;;;;18.59;47.40;98771.70;;;;-61
2021/01/31 00:23:16;;;;;;;1.40;1.30;;;;;;;18.56;47.43;98763.88;;;;-60
2021/01/31 00:26:15;;;;;;;1.40;1.30;;;;;;;18.55;47.42;98760.74;;;;-61
2021/01/31 00:29:16;;;;;;;1.50;1.40;;;;;;;18.54;47.36;98758.16;;;;-56
2021/01/31 00:32:16;;;;;;;1.42;1.32;;;;;;;18.52;47.44;98753.66;;;;-61
2021/01/31 00:35:16;;;;;;;1.84;1.36;;;;;;;18.51;47.40;98757.73;;;;-56
2021/01/31 00:38:16;;;;;;;1.61;1.49;;;;;;;18.48;47.42;98749.51;;;;-57
2021/01/31 00:41:16;;;;;;;1.76;1.33;;;;;;;18.47;47.41;98750.98;;;;-57
2021/01/31 00:44:15;;;;;;;1.56;1.46;;;;;;;18.46;47.42;98747.03;;;;-57
2021/01/31 00:47:16;;;;;;;1.50;1.40;;;;;;;18.44;47.42;98751.03;;;;-57
2021/01/31 00:50:16;;;;;;;1.67;1.45;;;;;;;18.42;47.47;98749.53;;;;-57
2021/01/31 00:53:16;;;;;;;1.40;1.30;;;;;;;18.40;47.43;98751.10;;;;-57
2021/01/31 00:56:16;;;;;;;1.87;1.43;;;;;;;18.37;47.51;98765.33;;;;-56
2021/01/31 00:59:16;;;;;;;1.40;1.30;;;;;;;18.36;47.49;98769.27;;;;-57
2021/01/31 01:02:16;;;;;;;1.50;1.40;;;;;;;18.35;47.49;98773.17;;;;-57
2021/01/31 01:05:16;;;;;;;1.47;1.37;;;;;;;18.33;47.45;98774.42;;;;-57
2021/01/31 01:08:15;;;;;;;1.59;1.49;;;;;;;18.31;47.49;98782.06;;;;-56
2021/01/31 01:11:15;;;;;;;1.40;1.30;;;;;;;18.30;47.50;98784.50;;;;-55
2021/01/31 01:14:16;;;;;;;1.50;1.40;;;;;;;18.28;47.50;98794.69;;;;-57
2021/01/31 01:17:15;;;;;;;1.40;1.30;;;;;;;18.27;47.50;98802.40;;;;-57
2021/01/31 01:20:16;;;;;;;1.48;1.38;;;;;;;18.25;47.50;98805.34;;;;-57
2021/01/31 01:23:16;;;;;;;1.50;1.40;;;;;;;18.24;47.52;98802.53;;;;-57
2021/01/31 01:26:15;;;;;;;1.50;1.40;;;;;;;18.23;47.48;98810.01;;;;-57
2021/01/31 01:29:15;;;;;;;1.30;1.20;;;;;;;18.22;47.51;98816.49;;;;-56
2021/01/31 01:32:16;;;;;;;1.40;1.30;;;;;;;18.20;47.50;98819.13;;;;-57
2021/01/31 01:35:15;;;;;;;1.40;1.30;;;;;;;18.18;47.54;98823.92;;;;-57
2021/01/31 01:38:16;;;;;;;1.53;1.43;;;;;;;18.16;47.56;98824.94;;;;-57
2021/01/31 01:41:16;;;;;;;1.43;1.33;;;;;;;18.16;47.55;98826.71;;;;-57
2021/01/31 01:44:15;;;;;;;1.59;1.44;;;;;;;18.13;47.59;98832.17;;;;-57
2021/01/31 01:47:15;;;;;;;1.45;1.35;;;;;;;18.12;47.55;98839.59;;;;-55
2021/01/31 01:50:16;;;;;;;1.43;1.33;;;;;;;18.11;47.59;98847.14;;;;-57
2021/01/31 01:53:15;;;;;;;1.49;1.39;;;;;;;18.10;47.56;98850.33;;;;-57
2021/01/31 01:56:16;;;;;;;1.63;1.53;;;;;;;18.08;47.61;98851.23;;;;-56
2021/01/31 01:59:16;;;;;;;1.50;1.40;;;;;;;18.08;47.57;98850.44;;;;-57
2021/01/31 02:02:15;;;;;;;1.61;1.51;;;;;;;18.06;47.59;98852.88;;;;-57
2021/01/31 02:05:16;;;;;;;1.50;1.40;;;;;;;18.04;47.61;98857.70;;;;-57
2021/01/31 02:08:16;;;;;;;1.53;1.43;;;;;;;18.03;47.59;98858.84;;;;-58
2021/01/31 02:11:15;;;;;;;1.48;1.38;;;;;;;18.01;47.68;98857.91;;;;-57
2021/01/31 02:14:16;;;;;;;1.50;1.40;;;;;;;18.01;47.58;98863.23;;;;-57
2021/01/31 02:17:16;;;;;;;1.55;1.45;;;;;;;18.01;47.58;98861.12;;;;-56
2021/01/31 02:20:15;;;;;;;1.53;1.43;;;;;;;18.00;47.61;98858.00;;;;-55
2021/01/31 02:23:16;;;;;;;1.40;1.30;;;;;;;17.97;47.57;98855.77;;;;-57
2021/01/31 02:26:15;;;;;;;1.77;1.42;;;;;;;17.96;47.59;98855.69;;;;-57
2021/01/31 02:29:16;;;;;;;1.49;1.39;;;;;;;17.95;47.58;98850.83;;;;-57
2021/01/31 02:32:16;;;;;;;1.55;1.45;;;;;;;17.93;47.59;98851.20;;;;-55
2021/01/31 02:35:15;;;;;;;1.55;1.43;;;;;;;17.93;47.59;98850.80;;;;-57
2021/01/31 02:38:15;;;;;;;1.37;1.27;;;;;;;17.92;47.58;98850.24;;;;-57
2021/01/31 02:41:16;;;;;;;1.47;1.37;;;;;;;17.91;47.60;98844.83;;;;-57
2021/01/31 02:44:15;;;;;;;1.50;1.40;;;;;;;17.90;47.60;98841.84;;;;-57
2021/01/31 02:47:16;;;;;;;1.50;1.40;;;;;;;17.88;47.67;98845.98;;;;-57
2021/01/31 02:50:16;;;;;;;1.55;1.45;;;;;;;17.86;47.63;98844.62;;;;-57
2021/01/31 02:53:15;;;;;;;1.65;1.55;;;;;;;17.86;47.63;98851.84;;;;-57
2021/01/31 02:56:15;;;;;;;1.83;1.57;;;;;;;17.85;47.61;98860.85;;;;-57
2021/01/31 02:59:16;;;;;;;1.47;1.36;;;;;;;17.85;47.56;98864.69;;;;-54
2021/01/31 03:02:15;;;;;;;1.51;1.41;;;;;;;17.83;47.62;98867.38;;;;-54
2021/01/31 03:05:15;;;;;;;1.50;1.40;;;;;;;17.82;47.59;98868.30;;;;-57
2021/01/31 03:08:16;;;;;;;1.59;1.49;;;;;;;17.82;47.60;98875.44;;;;-57
2021/01/31 03:11:16;;;;;;;1.50;1.40;;;;;;;17.81;47.60;98877.50;;;;-54
2021/01/31 03:14:15;;;;;;;1.61;1.51;;;;;;;17.80;47.60;98877.08;;;;-54
2021/01/31 03:17:16;;;;;;;1.63;1.51;;;;;;;17.79;47.56;98873.95;;;;-54
2021/01/31 03:20:15;;;;;;;1.68;1.57;;;;;;;17.78;47.57;98876.79;;;;-54
2021/01/31 03:23:16;;;;;;;1.53;1.43;;;;;;;17.77;47.58;98866.75;;;;-54
2021/01/31 03:26:16;;;;;;;1.61;1.51;;;;;;;17.75;47.58;98859.48;;;;-54
2021/01/31 03:29:15;;;;;;;1.52;1.42;;;;;;;17.75;47.56;98863.07;;;;-54
2021/01/31 03:32:16;;;;;;;1.60;1.50;;;;;;;17.73;47.61;98863.56;;;;-54
2021/01/31 03:35:16;;;;;;;1.62;1.52;;;;;;;17.72;47.62;98866.09;;;;-52
2021/01/31 03:38:16;;;;;;;1.60;1.50;;;;;;;17.71;47.66;98870.97;;;;-51
2021/01/31 03:41:16;;;;;;;1.61;1.51;;;;;;;17.71;47.59;98872.84;;;;-52
2021/01/31 03:44:15;;;;;;;1.51;1.41;;;;;;;17.69;47.56;98874.39;;;;-52
2021/01/31 03:47:15;;;;;;;1.55;1.45;;;;;;;17.69;47.55;98877.15;;;;-51
2021/01/31 03:50:16;;;;;;;1.63;1.53;;;;;;;17.68;47.60;98871.95;;;;-51
2021/01/31 03:53:15;;;;;;;1.50;1.40;;;;;;;17.66;47.55;98863.17;;;;-52
2021/01/31 03:56:15;;;;;;;1.65;1.55;;;;;;;17.66;47.54;98864.31;;;;-57
2021/01/31 03:59:16;;;;;;;1.61;1.51;;;;;;;17.65;47.54;98867.78;;;;-57
2021/01/31 04:02:15;;;;;;;1.49;1.39;;;;;;;17.64;47.58;98858.72;;;;-61
2021/01/31 04:05:15;;;;;;;1.60;1.50;;;;;;;17.63;47.54;98861.02;;;;-62
2021/01/31 04:08:16;;;;;;;1.61;1.51;;;;;;;17.62;47.57;98863.38;;;;-61
2021/01/31 04:11:15;;;;;;;1.59;1.49;;;;;;;17.62;47.56;98859.88;;;;-62
2021/01/31 04:14:15;;;;;;;1.74;1.63;;;;;;;17.61;47.56;98857.23;;;;-61
2021/01/31 04:17:16;;;;;;;1.56;1.46;;;;;;;17.59;47.62;98852.22;;;;-53
2021/01/31 04:20:15;;;;;;;1.75;1.65;;;;;;;17.58;47.60;98848.68;;;;-52
2021/01/31 04:23:15;;;;;;;1.55;1.45;;;;;;;17.57;47.53;98850.86;;;;-51
2021/01/31 04:26:16;;;;;;;1.75;1.65;;;;;;;17.57;47.56;98854.03;;;;-53
2021/01/31 04:29:15;;;;;;;1.64;1.54;;;;;;;17.56;47.53;98858.09;;;;-52
2021/01/31 04:32:15;;;;;;;1.60;1.50;;;;;;;17.55;47.56;98863.94;;;;-51
2021/01/31 04:35:16;;;;;;;1.73;1.63;;;;;;;17.54;47.57;98871.73;;;;-54
2021/01/31 04:38:15;;;;;;;1.75;1.65;;;;;;;17.54;47.51;98874.33;;;;-54
2021/01/31 04:41:15;;;;;;;1.63;1.53;;;;;;;17.53;47.50;98874.33;;;;-57
2021/01/31 04:44:16;;;;;;;1.70;1.60;;;;;;;17.51;47.56;98871.33;;;;-53
2021/01/31 04:47:15;;;;;;;1.67;1.57;;;;;;;17.51;47.54;98873.87;;;;-51
2021/01/31 04:50:16;;;;;;;1.72;1.62;;;;;;;17.50;47.49;98878.58;;;;-52
2021/01/31 04:53:16;;;;;;;1.69;1.59;;;;;;;17.49;47.53;98878.25;;;;-51
2021/01/31 04:56:16;;;;;;;1.73;1.63;;;;;;;17.49;47.51;98882.70;;;;-51
2021/01/31 04:59:16;;;;;;;1.70;1.60;;;;;;;17.47;47.53;98881.02;;;;-53
2021/01/31 05:02:15;;;;;;;1.75;1.65;;;;;;;17.46;47.55;98887.28;;;;-52
2021/01/31 05:05:15;;;;;;;1.67;1.57;;;;;;;17.46;47.50;98891.90;;;;-52
2021/01/31 05:08:16;;;;;;;1.73;1.63;;;;;;;17.45;47.55;98893.92;;;;-51
2021/01/31 05:11:15;;;;;;;1.60;1.50;;;;;;;17.44;47.54;98899.93;;;;-54
2021/01/31 05:14:15;;;;;;;1.67;1.57;;;;;;;17.44;47.48;98902.53;;;;-52
2021/01/31 05:17:15;;;;;;;1.67;1.57;;;;;;;17.42;47.52;98898.01;;;;-62
2021/01/31 05:20:15;;;;;;;1.79;1.69;;;;;;;17.41;47.54;98897.60;;;;-62
2021/01/31 05:23:15;;;;;;;1.75;1.65;;;;;;;17.40;47.54;98895.69;;;;-62
2021/01/31 05:26:16;;;;;;;1.84;1.74;;;;;;;17.39;47.51;98892.88;;;;-62
2021/01/31 05:29:15;;;;;;;1.78;1.68;;;;;;;17.38;47.45;98892.30;;;;-62
2021/01/31 05:32:15;;;;;;;1.77;1.67;;;;;;;17.38;47.50;98898.30;;;;-62
2021/01/31 05:35:15;;;;;;;1.73;1.63;;;;;;;17.37;47.44;98902.67;;;;-63
2021/01/31 05:38:15;;;;;;;1.70;1.60;;;;;;;17.36;47.44;98901.45;;;;-51
2021/01/31 05:41:15;;;;;;;1.79;1.69;;;;;;;17.35;47.47;98900.53;;;;-62
2021/01/31 05:44:16;;;;;;;1.78;1.68;;;;;;;17.35;47.46;98910.23;;;;-62
2021/01/31 05:47:15;;;;;;;1.69;1.59;;;;;;;17.34;47.47;98910.55;;;;-62
2021/01/31 05:50:15;;;;;;;1.67;1.57;;;;;;;17.32;47.49;98908.63;;;;-63
2021/01/31 05:53:16;;;;;;;1.70;1.60;;;;;;;17.32;47.47;98907.50;;;;-62
2021/01/31 05:56:15;;;;;;;1.71;1.61;;;;;;;17.31;47.51;98910.36;;;;-62
2021/01/31 05:59:16;;;;;;;1.74;1.64;;;;;;;17.31;47.41;98916.11;;;;-62
2021/01/31 06:02:15;;;;;;;1.69;1.59;;;;;;;17.30;47.44;98913.67;;;;-62
2021/01/31 06:05:15;;;;;;;2.03;1.78;;;;;;;17.29;47.46;98916.77;;;;-63
2021/01/31 06:08:15;;;;;;;1.63;1.53;;;;;;;17.28;47.48;98924.78;;;;-63
2021/01/31 06:11:15;;;;;;;1.73;1.63;;;;;;;17.28;47.44;98924.61;;;;-57
2021/01/31 06:14:15;;;;;;;1.70;1.60;;;;;;;17.28;47.46;98927.20;;;;-57
2021/01/31 06:17:16;;;;;;;1.90;1.80;;;;;;;17.28;47.42;98931.17;;;;-51
2021/01/31 06:20:15;;;;;;;1.69;1.59;;;;;;;17.28;47.43;98935.47;;;;-52
2021/01/31 06:23:15;;;;;;;1.69;1.59;;;;;;;17.29;47.43;98941.55;;;;-51
2021/01/31 06:26:15;;;;;;;1.73;1.63;;;;;;;17.30;47.44;98941.84;;;;-52
2021/01/31 06:29:15;;;;;;;1.72;1.62;;;;;;;17.32;47.48;98943.53;;;;-53
2021/01/31 06:32:15;;;;;;;1.57;1.47;;;;;;;17.34;47.42;98952.00;;;;-54
2021/01/31 06:35:15;;;;;;;1.81;1.71;;;;;;;17.36;47.47;98957.27;;;;-54
2021/01/31 06:38:15;;;;;;;1.87;1.61;;;;;;;17.38;47.52;98956.58;;;;-52
2021/01/31 06:41:16;;;;;;;1.71;1.61;;;;;;;17.42;47.49;98957.30;;;;-51
2021/01/31 06:44:15;;;;;;;1.83;1.71;;;;;;;17.45;47.43;98963.27;;;;-51
2021/01/31 06:47:15;;;;;;;1.60;1.50;;;;;;;17.49;47.39;98971.48;;;;-62
2021/01/31 06:50:15;;;;;;;1.80;1.70;;;;;;;17.53;47.48;98968.59;;;;-62
2021/01/31 06:53:15;;;;;;;1.92;1.79;;;;;;;17.57;47.49;98977.22;;;;-62
2021/01/31 06:56:15;;;;;;;2.15;1.55;;;;;;;17.62;47.43;98980.08;;;;-54
2021/01/31 07:01:15;;;;;;;1.71;1.61;;;;;;;17.67;47.46;98972.26;;;;-54
2021/01/31 07:04:15;;;;;;;1.67;1.57;;;;;;;17.71;47.57;98974.16;;;;-55
2021/01/31 07:07:15;;;;;;;1.64;1.54;;;;;;;17.74;47.48;98978.43;;;;-57
2021/01/31 07:11:15;;;;;;;1.79;1.69;;;;;;;17.78;47.62;98982.77;;;;-56
2021/01/31 07:14:15;;;;;;;1.74;1.64;;;;;;;17.80;47.54;98983.06;;;;-57
2021/01/31 07:17:15;;;;;;;1.73;1.63;;;;;;;17.78;47.02;98996.77;;;;-52
2021/01/31 07:20:15;;;;;;;6.38;5.78;;;;;;;17.28;42.07;98999.01;;;;-55
2021/01/31 07:23:15;;;;;;;6.60;6.00;;;;;;;16.85;41.22;98997.89;;;;-56
2021/01/31 07:26:15;;;;;;;6.45;5.85;;;;;;;16.55;40.67;98987.66;;;;-58
2021/01/31 07:29:15;;;;;;;6.86;6.12;;;;;;;16.48;41.35;98977.77;;;;-54
2021/01/31 07:32:15;;;;;;;7.39;5.63;;;;;;;16.75;42.14;98979.87;;;;-54
2021/01/31 07:35:15;;;;;;;5.75;5.15;;;;;;;16.89;42.64;98984.27;;;;-53
2021/01/31 07:38:15;;;;;;;4.89;4.41;;;;;;;17.02;43.32;98991.62;;;;-52
2021/01/31 07:41:16;;;;;;;4.87;4.12;;;;;;;17.12;43.51;98986.99;;;;-53
2021/01/31 07:44:15;;;;;;;4.32;3.77;;;;;;;17.20;43.79;98991.78;;;;-58
2021/01/31 07:47:15;;;;;;;4.47;3.63;;;;;;;17.27;44.01;98988.75;;;;-58
2021/01/31 07:50:15;;;;;;;4.93;3.57;;;;;;;17.34;44.09;98995.01;;;;-51
2021/01/31 07:53:15;;;;;;;5.39;3.59;;;;;;;17.39;44.20;98990.11;;;;-53
2021/01/31 07:56:15;;;;;;;4.06;3.59;;;;;;;17.46;44.24;98998.55;;;;-62
2021/01/31 07:59:15;;;;;;;3.58;3.19;;;;;;;17.51;44.32;98999.14;;;;-53
2021/01/31 08:02:15;;;;;;;3.49;3.19;;;;;;;17.56;44.60;98999.77;;;;-53
2021/01/31 08:05:15;;;;;;;3.47;3.17;;;;;;;17.61;44.68;99003.83;;;;-63
2021/01/31 08:08:15;;;;;;;3.52;3.22;;;;;;;17.65;44.83;99003.15;;;;-52
2021/01/31 08:11:15;;;;;;;3.30;3.00;;;;;;;17.70;44.82;99004.88;;;;-53
2021/01/31 08:14:15;;;;;;;4.50;3.57;;;;;;;17.74;45.06;99008.72;;;;-57
2021/01/31 08:17:15;;;;;;;3.37;3.07;;;;;;;17.76;45.08;99010.48;;;;-51
2021/01/31 08:21:15;;;;;;;3.38;3.08;;;;;;;17.81;45.11;99022.45;;;;-54
2021/01/31 08:24:15;;;;;;;3.07;2.77;;;;;;;17.82;45.26;99019.74;;;;-54
2021/01/31 08:28:16;;;;;;;3.01;2.81;;;;;;;17.84;45.38;99026.15;;;;-57
2021/01/31 08:31:15;;;;;;;3.25;2.87;;;;;;;17.87;45.43;99021.84;;;;-53
2021/01/31 08:34:15;;;;;;;3.09;2.79;;;;;;;17.88;45.43;99027.66;;;;-52
2021/01/31 08:37:15;;;;;;;3.06;2.78;;;;;;;17.89;45.49;99028.48;;;;-60
2021/01/31 08:40:15;;;;;;;2.94;2.74;;;;;;;17.90;45.59;99018.48;;;;-57
2021/01/31 08:43:15;;;;;;;3.03;2.73;;;;;;;17.91;45.62;99011.02;;;;-62
2021/01/31 08:46:15;;;;;;;2.84;2.64;;;;;;;17.92;45.57;99014.91;;;;-51
2021/01/31 08:49:15;;;;;;;2.97;2.67;;;;;;;17.92;45.66;99026.08;;;;-60
2021/01/31 08:52:15;;;;;;;3.20;2.90;;;;;;;17.93;45.67;99026.25;;;;-51
2021/01/31 08:55:15;;;;;;;3.08;2.84;;;;;;;17.93;45.65;99027.53;;;;-62
2021/01/31 08:58:15;;;;;;;2.90;2.62;;;;;;;17.92;45.66;99022.75;;;;-60
2021/01/31 09:01:15;;;;;;;2.81;2.61;;;;;;;17.93;45.72;99027.87;;;;-53
2021/01/31 09:04:15;;;;;;;3.03;2.75;;;;;;;17.93;45.73;99025.84;;;;-61
2021/01/31 09:07:15;;;;;;;2.74;2.51;;;;;;;17.92;45.65;99025.18;;;;-54
2021/01/31 09:10:15;;;;;;;2.94;2.69;;;;;;;17.93;45.70;99032.33;;;;-54
2021/01/31 09:13:15;;;;;;;3.19;2.80;;;;;;;17.95;46.23;99036.42;;;;-52
2021/01/31 09:16:15;;;;;;;4.13;2.78;;;;;;;17.96;46.70;99038.28;;;;-53
2021/01/31 09:19:15;;;;;;;4.31;2.82;;;;;;;17.98;47.01;99020.92;;;;-54
2021/01/31 09:22:16;;;;;;;3.14;2.85;;;;;;;18.02;47.16;99018.69;;;;-51
2021/01/31 09:25:15;;;;;;;4.17;2.73;;;;;;;18.06;47.05;99016.61;;;;-52
2021/01/31 09:28:15;;;;;;;3.02;2.72;;;;;;;18.12;47.11;99018.51;;;;-49
2021/01/31 09:31:15;;;;;;;2.86;2.66;;;;;;;18.17;47.22;99021.50;;;;-47
2021/01/31 09:34:15;;;;;;;3.67;2.62;;;;;;;18.26;47.20;99020.19;;;;-55
2021/01/31 09:37:15;;;;;;;7.97;2.79;;;;;;;18.31;46.70;99018.75;;;;-44
2021/01/31 09:40:15;;;;;;;3.89;2.85;;;;;;;18.35;47.13;99014.81;;;;-50
2021/01/31 09:43:15;;;;;;;3.57;2.70;;;;;;;18.43;47.49;99009.69;;;;-48
2021/01/31 09:46:16;;;;;;;2.99;2.59;;;;;;;18.47;47.45;99010.77;;;;-47
2021/01/31 09:49:15;;;;;;;2.95;2.68;;;;;;;18.52;47.23;99016.95;;;;-54
2021/01/31 09:52:15;;;;;;;2.99;2.70;;;;;;;18.57;47.56;99023.05;;;;-47
2021/01/31 09:55:15;;;;;;;2.99;2.68;;;;;;;18.62;47.40;99020.56;;;;-51
2021/01/31 09:58:15;;;;;;;5.13;2.69;;;;;;;18.66;47.61;99022.21;;;;-43
2021/01/31 10:01:15;;;;;;;2.43;2.23;;;;;;;18.69;47.50;99025.96;;;;-50
2021/01/31 10:04:15;;;;;;;2.99;2.55;;;;;;;18.74;47.54;99026.00;;;;-51
2021/01/31 10:07:15;;;;;;;2.65;2.45;;;;;;;18.78;47.58;99026.61;;;;-51
2021/01/31 10:10:15;;;;;;;3.10;2.57;;;;;;;18.82;47.51;99029.00;;;;-56
2021/01/31 10:13:15;;;;;;;3.71;2.48;;;;;;;18.85;47.52;99025.14;;;;-53
2021/01/31 10:16:15;;;;;;;3.13;2.39;;;;;;;18.88;47.39;99019.81;;;;-50
2021/01/31 10:19:15;;;;;;;3.81;2.54;;;;;;;18.94;47.48;99019.48;;;;-44
2021/01/31 10:22:15;;;;;;;4.28;2.43;;;;;;;18.96;47.54;99020.03;;;;-51
2021/01/31 10:25:15;;;;;;;2.81;2.55;;;;;;;19.02;47.60;99015.00;;;;-53
2021/01/31 10:28:15;;;;;;;3.02;2.38;;;;;;;19.03;47.48;99018.06;;;;-57
2021/01/31 10:31:15;;;;;;;3.94;2.57;;;;;;;19.08;47.39;99022.30;;;;-53
2021/01/31 10:34:15;;;;;;;3.05;2.42;;;;;;;19.11;47.36;99026.22;;;;-51
2021/01/31 10:37:15;;;;;;;2.57;2.37;;;;;;;19.14;47.34;99022.20;;;;-54
2021/01/31 10:40:15;;;;;;;2.55;2.35;;;;;;;19.18;47.30;99019.64;;;;-57
2021/01/31 10:43:15;;;;;;;2.88;2.47;;;;;;;19.21;47.47;99019.34;;;;-57
2021/01/31 10:46:15;;;;;;;2.87;2.37;;;;;;;19.24;47.69;99022.55;;;;-55
2021/01/31 10:49:15;;;;;;;2.57;2.37;;;;;;;19.25;47.66;99035.19;;;;-50
2021/01/31 10:52:15;;;;;;;2.81;2.44;;;;;;;19.27;47.62;99046.12;;;;-52
2021/01/31 10:55:15;;;;;;;6.25;2.41;;;;;;;19.28;47.55;99046.03;;;;-49
2021/01/31 10:58:15;;;;;;;2.65;2.42;;;;;;;19.30;47.74;99033.48;;;;-57
2021/01/31 11:01:15;;;;;;;2.47;2.27;;;;;;;19.32;47.67;99026.63;;;;-50
2021/01/31 11:04:15;;;;;;;2.31;2.13;;;;;;;19.34;47.74;99023.83;;;;-51
2021/01/31 11:07:15;;;;;;;2.60;2.40;;;;;;;19.39;47.58;99021.39;;;;-55
2021/01/31 11:10:15;;;;;;;2.51;2.31;;;;;;;19.38;47.54;99018.66;;;;-47
2021/01/31 11:13:15;;;;;;;3.23;2.22;;;;;;;19.39;47.76;99000.34;;;;-48
2021/01/31 11:16:15;;;;;;;2.49;2.29;;;;;;;19.41;47.52;98991.89;;;;-47
2021/01/31 11:19:15;;;;;;;2.71;2.40;;;;;;;19.41;47.13;98980.44;;;;-54
2021/01/31 11:22:15;;;;;;;2.48;2.27;;;;;;;19.41;46.84;98973.20;;;;-55
2021/01/31 11:25:15;;;;;;;2.57;2.36;;;;;;;19.41;46.61;98971.59;;;;-55
2021/01/31 11:28:17;;;;;;;2.55;2.29;;;;;;;19.41;46.51;98978.63;;;;-54
2021/01/31 11:31:15;;;;;;;2.63;2.33;;;;;;;19.43;46.37;98982.34;;;;-57
2021/01/31 11:34:15;;;;;;;4.41;2.40;;;;;;;19.45;46.33;98984.59;;;;-57
2021/01/31 11:37:15;;;;;;;2.70;2.50;;;;;;;19.45;46.27;98988.65;;;;-57
2021/01/31 11:40:15;;;;;;;2.54;2.34;;;;;;;19.44;46.17;98986.86;;;;-57
2021/01/31 11:43:15;;;;;;;2.79;2.27;;;;;;;19.43;46.17;98984.12;;;;-60
2021/01/31 11:46:15;;;;;;;2.51;2.31;;;;;;;19.45;46.14;98990.36;;;;-59
2021/01/31 11:49:15;;;;;;;2.59;2.35;;;;;;;19.46;46.09;98988.38;;;;-59
2021/01/31 11:52:16;;;;;;;3.02;2.35;;;;;;;19.45;46.00;98984.17;;;;-59
2021/01/31 11:55:15;;;;;;;2.37;2.17;;;;;;;19.47;46.04;98981.72;;;;-61
2021/01/31 11:58:15;;;;;;;2.45;2.25;;;;;;;19.48;46.00;98975.52;;;;-59
2021/01/31 12:01:15;;;;;;;3.15;2.20;;;;;;;19.48;45.97;98972.17;;;;-60
2021/01/31 12:04:15;;;;;;;2.49;2.27;;;;;;;19.47;45.92;98966.50;;;;-59
2021/01/31 12:07:15;;;;;;;2.61;2.41;;;;;;;19.48;45.94;98960.62;;;;-54
2021/01/31 12:10:15;;;;;;;2.62;2.22;;;;;;;19.50;45.90;98959.39;;;;-56
2021/01/31 12:13:15;;;;;;;2.19;2.03;;;;;;;19.50;45.87;98958.56;;;;-57
2021/01/31 12:16:15;;;;;;;2.52;2.31;;;;;;;19.51;45.85;98952.08;;;;-59
2021/01/31 12:19:15;;;;;;;2.40;2.20;;;;;;;19.52;45.83;98952.84;;;;-59
2021/01/31 12:22:15;;;;;;;2.47;2.27;;;;;;;19.54;45.81;98951.77;;;;-59
2021/01/31 12:25:15;;;;;;;2.49;2.29;;;;;;;19.54;45.84;98950.54;;;;-60
2021/01/31 12:28:15;;;;;;;2.96;2.32;;;;;;;19.55;45.72;98948.00;;;;-58
2021/01/31 12:31:15;;;;;;;2.58;2.38;;;;;;;19.54;45.81;98942.56;;;;-58
2021/01/31 12:34:15;;;;;;;2.30;2.10;;;;;;;19.56;45.80;98939.55;;;;-58
2021/01/31 12:37:15;;;;;;;2.54;2.34;;;;;;;19.56;45.70;98940.27;;;;-59
2021/01/31 12:40:15;;;;;;;2.35;2.15;;;;;;;19.56;45.70;98936.84;;;;-58
2021/01/31 12:43:15;;;;;;;2.40;2.20;;;;;;;19.56;45.68;98935.31;;;;-60
2021/01/31 12:46:15;;;;;;;2.44;2.24;;;;;;;19.56;45.62;98932.95;;;;-59
2021/01/31 12:49:15;;;;;;;2.50;2.30;;;;;;;19.55;45.64;98928.67;;;;-60
2021/01/31 12:52:15;;;;;;;2.43;2.23;;;;;;;19.56;45.62;98925.80;;;;-60
2021/01/31 12:55:15;;;;;;;2.41;2.21;;;;;;;19.56;45.55;98919.22;;;;-55
2021/01/31 12:58:15;;;;;;;2.39;2.19;;;;;;;19.56;45.58;98921.16;;;;-56
2021/01/31 13:01:15;;;;;;;2.50;2.30;;;;;;;19.56;45.56;98915.08;;;;-61
2021/01/31 13:04:15;;;;;;;2.38;2.18;;;;;;;19.55;45.53;98910.15;;;;-57
2021/01/31 13:07:15;;;;;;;2.44;2.24;;;;;;;19.54;45.52;98908.12;;;;-55
2021/01/31 13:10:15;;;;;;;2.31;2.11;;;;;;;19.55;45.45;98900.00;;;;-55
2021/01/31 13:13:16;;;;;;;2.33;2.12;;;;;;;19.55;45.51;98894.23;;;;-54
2021/01/31 13:16:15;;;;;;;2.31;2.11;;;;;;;19.55;45.51;98889.44;;;;-51
2021/01/31 13:19:15;;;;;;;3.63;2.20;;;;;;;19.56;45.95;98882.56;;;;-54
2021/01/31 13:22:15;;;;;;;3.21;2.45;;;;;;;19.59;46.22;98884.06;;;;-50
2021/01/31 13:25:15;;;;;;;2.50;2.28;;;;;;;19.60;46.45;98882.89;;;;-53
2021/01/31 13:28:15;;;;;;;2.56;2.25;;;;;;;19.62;46.23;98875.88;;;;-55
2021/01/31 13:31:15;;;;;;;2.27;2.07;;;;;;;19.65;46.37;98874.92;;;;-57
2021/01/31 13:34:15;;;;;;;2.43;2.23;;;;;;;19.66;46.48;98872.54;;;;-50
2021/01/31 13:37:15;;;;;;;4.03;2.40;;;;;;;19.69;46.51;98867.38;;;;-51
2021/01/31 13:40:15;;;;;;;4.12;2.51;;;;;;;19.71;46.15;98864.27;;;;-56
2021/01/31 13:43:15;;;;;;;4.94;2.52;;;;;;;19.72;46.35;98860.92;;;;-52
2021/01/31 13:46:15;;;;;;;3.77;2.46;;;;;;;19.74;46.49;98856.09;;;;-52
2021/01/31 13:49:15;;;;;;;3.55;2.53;;;;;;;19.74;46.18;98847.72;;;;-52
2021/01/31 13:52:15;;;;;;;8.27;2.79;;;;;;;19.76;46.15;98841.27;;;;-57
2021/01/31 13:55:15;;;;;;;4.63;2.63;;;;;;;19.75;46.42;98835.98;;;;-57
2021/01/31 13:58:15;;;;;;;4.57;2.57;;;;;;;19.76;46.46;98841.25;;;;-55
2021/01/31 14:01:15;;;;;;;5.62;2.45;;;;;;;19.79;46.40;98840.52;;;;-56
2021/01/31 14:04:19;;;;;;;3.93;2.30;;;;;;;19.81;46.22;98831.64;;;;-51
2021/01/31 14:07:15;;;;;;;3.45;2.49;;;;;;;19.81;46.49;98819.86;;;;-50
2021/01/31 14:10:15;;;;;;;4.08;2.58;;;;;;;19.82;46.52;98813.75;;;;-51
2021/01/31 14:13:15;;;;;;;5.87;2.42;;;;;;;19.85;46.60;98812.77;;;;-52
2021/01/31 14:16:15;;;;;;;4.92;2.59;;;;;;;19.85;46.68;98811.05;;;;-52
2021/01/31 14:19:15;;;;;;;3.08;2.45;;;;;;;19.84;46.60;98806.80;;;;-52
2021/01/31 14:22:15;;;;;;;5.35;2.85;;;;;;;19.83;46.59;98814.77;;;;-58
2021/01/31 14:25:15;;;;;;;5.25;3.01;;;;;;;19.81;45.77;98815.62;;;;-63
2021/01/31 14:28:15;;;;;;;5.50;3.21;;;;;;;19.81;46.10;98812.71;;;;-54
2021/01/31 14:31:15;;;;;;;3.29;2.59;;;;;;;19.84;46.35;98816.70;;;;-54
2021/01/31 14:34:15;;;;;;;4.20;2.69;;;;;;;19.85;46.34;98815.53;;;;-57
2021/01/31 14:37:19;;;;;;;3.31;2.77;;;;;;;19.85;46.13;98814.73;;;;-57
2021/01/31 14:40:15;;;;;;;5.01;3.32;;;;;;;19.82;45.37;98815.60;;;;-60
2021/01/31 14:43:15;;;;;;;5.42;2.91;;;;;;;19.82;45.87;98817.82;;;;-50
2021/01/31 14:46:15;;;;;;;3.36;2.89;;;;;;;19.83;45.93;98816.72;;;;-50
2021/01/31 14:49:15;;;;;;;2.99;2.69;;;;;;;19.85;46.14;98817.50;;;;-50
2021/01/31 14:52:15;;;;;;;3.10;2.80;;;;;;;19.87;46.21;98822.83;;;;-48
2021/01/31 14:55:15;;;;;;;2.87;2.59;;;;;;;19.88;46.27;98821.01;;;;-48
2021/01/31 14:58:15;;;;;;;3.01;2.55;;;;;;;19.91;46.35;98819.25;;;;-57
2021/01/31 15:01:15;;;;;;;3.45;2.90;;;;;;;19.93;46.49;98814.08;;;;-52
2021/01/31 15:04:15;;;;;;;3.39;2.69;;;;;;;19.94;46.40;98815.75;;;;-50
2021/01/31 15:07:15;;;;;;;3.90;2.78;;;;;;;19.95;46.43;98807.94;;;;-53
2021/01/31 15:10:15;;;;;;;3.61;2.74;;;;;;;19.99;46.48;98808.17;;;;-58
2021/01/31 15:13:15;;;;;;;3.25;2.45;;;;;;;19.99;45.92;98804.44;;;;-57
2021/01/31 15:16:15;;;;;;;6.62;2.75;;;;;;;19.98;45.91;98797.27;;;;-52
2021/01/31 15:19:15;;;;;;;3.23;2.82;;;;;;;19.97;45.98;98793.83;;;;-54
2021/01/31 15:22:15;;;;;;;3.78;2.79;;;;;;;19.99;46.01;98793.76;;;;-57
2021/01/31 15:25:15;;;;;;;6.59;2.76;;;;;;;19.99;45.75;98797.10;;;;-56
2021/01/31 15:28:15;;;;;;;3.25;2.52;;;;;;;19.99;45.72;98788.50;;;;-56
2021/01/31 15:31:15;;;;;;;3.91;2.65;;;;;;;19.99;45.65;98785.09;;;;-56
2021/01/31 15:34:15;;;;;;;4.81;2.65;;;;;;;19.97;45.63;98781.05;;;;-55
2021/01/31 15:37:15;;;;;;;3.19;2.74;;;;;;;19.96;45.65;98776.12;;;;-56
2021/01/31 15:40:15;;;;;;;3.08;2.78;;;;;;;19.96;45.59;98777.58;;;;-57
2021/01/31 15:43:15;;;;;;;4.96;2.67;;;;;;;19.96;45.53;98773.92;;;;-56
2021/01/31 15:46:15;;;;;;;3.93;2.87;;;;;;;19.97;45.54;98769.99;;;;-56
2021/01/31 15:49:15;;;;;;;2.87;2.62;;;;;;;19.96;45.51;98767.07;;;;-57
2021/01/31 15:52:15;;;;;;;3.49;2.47;;;;;;;19.96;45.58;98766.28;;;;-56
2021/01/31 15:55:16;;;;;;;3.04;2.74;;;;;;;19.98;45.43;98764.19;;;;-56
2021/01/31 15:58:15;;;;;;;3.38;2.70;;;;;;;19.96;45.47;98760.08;;;;-57
2021/01/31 16:01:15;;;;;;;3.91;2.59;;;;;;;19.97;45.51;98756.59;;;;-57
2021/01/31 16:04:15;;;;;;;2.75;2.47;;;;;;;19.97;45.51;98758.70;;;;-55
2021/01/31 16:07:15;;;;;;;4.10;2.73;;;;;;;19.97;45.43;98749.98;;;;-55
2021/01/31 16:10:15;;;;;;;2.77;2.45;;;;;;;20.00;45.66;98739.42;;;;-58
2021/01/31 16:13:15;;;;;;;2.86;2.63;;;;;;;20.01;45.88;98732.45;;;;-57
2021/01/31 16:16:15;;;;;;;2.87;2.53;;;;;;;20.06;45.84;98730.25;;;;-59
2021/01/31 16:19:15;;;;;;;2.92;2.59;;;;;;;20.07;46.00;98718.46;;;;-51
2021/01/31 16:22:15;;;;;;;3.41;2.61;;;;;;;20.07;46.04;98706.17;;;;-49
2021/01/31 16:25:16;;;;;;;2.98;2.59;;;;;;;20.11;46.05;98713.18;;;;-47
2021/01/31 16:28:15;;;;;;;2.87;2.57;;;;;;;20.12;46.13;98716.97;;;;-49
2021/01/31 16:31:15;;;;;;;2.85;2.57;;;;;;;20.13;46.15;98721.98;;;;-49
2021/01/31 16:34:17;;;;;;;2.66;2.45;;;;;;;20.14;46.18;98725.36;;;;-53
2021/01/31 16:37:15;;;;;;;2.73;2.53;;;;;;;20.15;46.16;98733.97;;;;-53
2021/01/31 16:40:15;;;;;;;3.02;2.66;;;;;;;20.18;46.16;98730.97;;;;-53
2021/01/31 16:43:17;;;;;;;2.87;2.55;;;;;;;20.19;46.19;98730.67;;;;-52
2021/01/31 16:46:15;;;;;;;2.89;2.61;;;;;;;20.19;46.19;98725.32;;;;-52
2021/01/31 16:49:15;;;;;;;2.90;2.61;;;;;;;20.21;46.36;98728.28;;;;-46
2021/01/31 16:52:15;;;;;;;4.03;2.51;;;;;;;20.20;46.35;98727.41;;;;-54
2021/01/31 16:55:15;;;;;;;2.73;2.52;;;;;;;20.22;46.37;98725.91;;;;-48
2021/01/31 16:58:15;;;;;;;2.93;2.63;;;;;;;20.22;46.36;98728.03;;;;-48
2021/01/31 17:01:15;;;;;;;2.71;2.51;;;;;;;20.23;46.34;98719.86;;;;-50